TRA31G EHAM-LEGR
Flight info
| Callsign | TRA31G |
|---|---|
| Flight time | 2h 30m |
| Altitude | 36000 |
| Route | WOODY DCT CIV DCT KOVIN DCT DUCRA DCT RESMI DCT DEKOD DCT DISAK DCT ARKIP DCT ARNAV DCT LMG DCT UVELI DCT OSMOB DCT ARVID DCT PPN DCT NOLSA DCT ALEPO DCT VASUM DCT BANEV DCT BAN DCT PINAR DCT CJN L27 BLN DCT VIBAS |
| Aircraft | B738/M-SDE2E3FGHIRWXY/LB1 |
Departure
| Time | 2026-04-28 10:30 |
|---|---|
| Airport | Amsterdam Airport Schiphol (EHAM) |
Arrival
| Time | 2026-04-28 13:00 |
|---|---|
| Airport | F.G.L. Airport Granada-Jaén Airport (LEGR) |
| Time | Latitude | Longitude | Altitude | Speed | Heading |
|---|---|---|---|---|---|
| 2026-04-28 10:06 | 52.31294 | 4.76910 | 3 ft | 0 kts | 304° |
| 2026-04-28 10:21 | 52.31288 | 4.76924 | 2 ft | 4 kts | 305° |
| 2026-04-28 10:21 | 52.31272 | 4.76959 | 2 ft | 4 kts | 310° |
| 2026-04-28 10:21 | 52.31253 | 4.76991 | 1 ft | 4 kts | 321° |
| 2026-04-28 10:22 | 52.31231 | 4.77012 | 0 ft | 4 kts | 356° |
| 2026-04-28 10:22 | 52.31219 | 4.77010 | 0 ft | 1 kts | 33° |
| 2026-04-28 10:24 | 52.31224 | 4.77015 | 0 ft | 3 kts | 33° |
| 2026-04-28 10:24 | 52.31260 | 4.77055 | 0 ft | 10 kts | 34° |
| 2026-04-28 10:25 | 52.31333 | 4.77136 | 2 ft | 15 kts | 32° |
| 2026-04-28 10:25 | 52.31444 | 4.77194 | 5 ft | 19 kts | 3° |
| 2026-04-28 10:25 | 52.31558 | 4.77171 | 8 ft | 16 kts | 308° |
| 2026-04-28 10:25 | 52.31566 | 4.76977 | 10 ft | 20 kts | 266° |
| 2026-04-28 10:26 | 52.31557 | 4.76722 | 10 ft | 25 kts | 268° |
| 2026-04-28 10:26 | 52.31551 | 4.76473 | 17 ft | 21 kts | 267° |
| 2026-04-28 10:26 | 52.31540 | 4.76204 | 15 ft | 27 kts | 267° |
| 2026-04-28 10:26 | 52.31531 | 4.75925 | 16 ft | 24 kts | 267° |
| 2026-04-28 10:27 | 52.31520 | 4.75619 | 10 ft | 21 kts | 266° |
| 2026-04-28 10:27 | 52.31510 | 4.75354 | 9 ft | 27 kts | 266° |
| 2026-04-28 10:27 | 52.31500 | 4.75055 | 11 ft | 21 kts | 267° |
| 2026-04-28 10:27 | 52.31492 | 4.74806 | 13 ft | 18 kts | 267° |
| 2026-04-28 10:28 | 52.31559 | 4.74661 | 18 ft | 13 kts | 355° |
| 2026-04-28 10:28 | 52.31658 | 4.74694 | 19 ft | 17 kts | 50° |
| 2026-04-28 10:28 | 52.31673 | 4.74820 | 16 ft | 3 kts | 87° |
| 2026-04-28 10:29 | 52.31679 | 4.74979 | 12 ft | 20 kts | 87° |
| 2026-04-28 10:29 | 52.31700 | 4.75578 | 13 ft | 88 kts | 86° |
| 2026-04-28 10:29 | 52.31746 | 4.76923 | 14 ft | 148 kts | 87° |
| 2026-04-28 10:29 | 52.31808 | 4.78853 | 176 ft | 185 kts | 87° |
| 2026-04-28 10:30 | 52.31822 | 4.81038 | 707 ft | 204 kts | 97° |
| 2026-04-28 10:30 | 52.31298 | 4.83306 | 992 ft | 227 kts | 126° |
| 2026-04-28 10:30 | 52.30150 | 4.85167 | 1471 ft | 240 kts | 146° |
| 2026-04-28 10:30 | 52.28580 | 4.86340 | 1974 ft | 257 kts | 168° |
| 2026-04-28 10:31 | 52.26835 | 4.86391 | 2995 ft | 252 kts | 191° |
| 2026-04-28 10:31 | 52.25084 | 4.85833 | 3743 ft | 260 kts | 190° |
| 2026-04-28 10:31 | 52.23277 | 4.85408 | 4563 ft | 264 kts | 187° |
| 2026-04-28 10:31 | 52.21434 | 4.85103 | 5402 ft | 268 kts | 185° |
| 2026-04-28 10:32 | 52.19564 | 4.84893 | 6238 ft | 271 kts | 184° |
| 2026-04-28 10:32 | 52.17669 | 4.84750 | 7042 ft | 274 kts | 182° |
| 2026-04-28 10:32 | 52.15749 | 4.84648 | 7831 ft | 278 kts | 182° |
| 2026-04-28 10:32 | 52.13806 | 4.84573 | 8622 ft | 281 kts | 181° |
| 2026-04-28 10:33 | 52.11844 | 4.84513 | 9394 ft | 284 kts | 181° |
| 2026-04-28 10:33 | 52.09850 | 4.84464 | 10147 ft | 288 kts | 181° |
| 2026-04-28 10:33 | 52.07794 | 4.84418 | 10519 ft | 307 kts | 181° |
| 2026-04-28 10:33 | 52.05575 | 4.84371 | 10709 ft | 330 kts | 181° |
| 2026-04-28 10:34 | 52.03209 | 4.84313 | 11015 ft | 348 kts | 183° |
| 2026-04-28 10:34 | 52.00833 | 4.83495 | 11591 ft | 354 kts | 205° |
| 2026-04-28 10:34 | 51.98635 | 4.81689 | 12375 ft | 355 kts | 207° |
| 2026-04-28 10:34 | 51.96415 | 4.79883 | 13066 ft | 359 kts | 206° |
| 2026-04-28 10:35 | 51.94159 | 4.78096 | 13735 ft | 363 kts | 206° |
| 2026-04-28 10:35 | 51.91875 | 4.76306 | 14390 ft | 367 kts | 206° |
| 2026-04-28 10:35 | 51.89568 | 4.74503 | 15056 ft | 370 kts | 206° |
| 2026-04-28 10:35 | 51.87237 | 4.72684 | 15690 ft | 373 kts | 206° |
| 2026-04-28 10:36 | 51.84854 | 4.70824 | 16314 ft | 377 kts | 206° |
| 2026-04-28 10:36 | 51.82485 | 4.68976 | 16919 ft | 380 kts | 206° |
| 2026-04-28 10:36 | 51.80087 | 4.67108 | 17519 ft | 384 kts | 206° |
| 2026-04-28 10:36 | 51.77671 | 4.65228 | 18093 ft | 387 kts | 206° |
| 2026-04-28 10:37 | 51.75232 | 4.63331 | 18656 ft | 391 kts | 206° |
| 2026-04-28 10:37 | 51.72772 | 4.61419 | 19210 ft | 394 kts | 206° |
| 2026-04-28 10:37 | 51.70296 | 4.59498 | 19742 ft | 397 kts | 206° |
| 2026-04-28 10:37 | 51.67794 | 4.57560 | 20271 ft | 400 kts | 206° |
| 2026-04-28 10:38 | 51.65274 | 4.55610 | 20781 ft | 403 kts | 206° |
| 2026-04-28 10:38 | 51.62734 | 4.53645 | 21284 ft | 406 kts | 206° |
| 2026-04-28 10:38 | 51.60179 | 4.51669 | 21766 ft | 409 kts | 206° |
| 2026-04-28 10:38 | 51.57601 | 4.49678 | 22236 ft | 412 kts | 206° |
| 2026-04-28 10:39 | 51.55004 | 4.47674 | 22694 ft | 415 kts | 206° |
| 2026-04-28 10:39 | 51.52389 | 4.45658 | 23136 ft | 418 kts | 206° |
| 2026-04-28 10:39 | 51.49758 | 4.43632 | 23566 ft | 421 kts | 206° |
| 2026-04-28 10:39 | 51.47109 | 4.41595 | 23985 ft | 424 kts | 206° |
| 2026-04-28 10:40 | 51.44440 | 4.39545 | 24396 ft | 426 kts | 206° |
| 2026-04-28 10:40 | 51.41754 | 4.37486 | 24794 ft | 429 kts | 206° |
| 2026-04-28 10:40 | 51.39039 | 4.35465 | 25177 ft | 432 kts | 204° |
| 2026-04-28 10:40 | 51.36263 | 4.33593 | 25557 ft | 434 kts | 202° |
| 2026-04-28 10:41 | 51.33450 | 4.31789 | 25923 ft | 437 kts | 202° |
| 2026-04-28 10:41 | 51.30614 | 4.29997 | 26276 ft | 439 kts | 202° |
| 2026-04-28 10:41 | 51.27767 | 4.28195 | 26622 ft | 441 kts | 202° |
| 2026-04-28 10:41 | 51.24910 | 4.26373 | 26947 ft | 444 kts | 202° |
| 2026-04-28 10:42 | 51.22038 | 4.24531 | 27277 ft | 446 kts | 202° |
| 2026-04-28 10:42 | 51.19155 | 4.22673 | 27596 ft | 448 kts | 202° |
| 2026-04-28 10:42 | 51.16256 | 4.20802 | 27901 ft | 450 kts | 202° |
| 2026-04-28 10:42 | 51.13346 | 4.18924 | 28200 ft | 453 kts | 202° |
| 2026-04-28 10:43 | 51.10415 | 4.17033 | 28491 ft | 455 kts | 202° |
| 2026-04-28 10:43 | 51.07483 | 4.15145 | 28780 ft | 456 kts | 202° |
| 2026-04-28 10:43 | 51.04533 | 4.13248 | 29064 ft | 458 kts | 202° |
| 2026-04-28 10:43 | 51.01571 | 4.11346 | 29350 ft | 460 kts | 202° |
| 2026-04-28 10:44 | 50.98606 | 4.09446 | 29731 ft | 459 kts | 202° |
| 2026-04-28 10:44 | 50.95653 | 4.07556 | 30145 ft | 457 kts | 202° |
| 2026-04-28 10:44 | 50.92712 | 4.05677 | 30520 ft | 455 kts | 202° |
| 2026-04-28 10:44 | 50.89773 | 4.03801 | 30847 ft | 455 kts | 202° |
| 2026-04-28 10:45 | 50.86836 | 4.01929 | 31166 ft | 455 kts | 202° |
| 2026-04-28 10:45 | 50.83901 | 4.00060 | 31494 ft | 454 kts | 202° |
| 2026-04-28 10:45 | 50.80967 | 3.98195 | 31835 ft | 453 kts | 202° |
| 2026-04-28 10:45 | 50.78044 | 3.96340 | 32159 ft | 453 kts | 202° |
| 2026-04-28 10:46 | 50.75121 | 3.94486 | 32448 ft | 453 kts | 202° |
| 2026-04-28 10:46 | 50.72202 | 3.92638 | 32752 ft | 452 kts | 202° |
| 2026-04-28 10:46 | 50.69284 | 3.90792 | 33058 ft | 451 kts | 202° |
| 2026-04-28 10:46 | 50.66374 | 3.88954 | 33352 ft | 451 kts | 202° |
| 2026-04-28 10:47 | 50.63464 | 3.87119 | 33628 ft | 450 kts | 202° |
| 2026-04-28 10:47 | 50.60559 | 3.85288 | 33899 ft | 450 kts | 202° |
| 2026-04-28 10:47 | 50.57657 | 3.83463 | 34174 ft | 449 kts | 202° |
| 2026-04-28 10:47 | 50.54771 | 3.81591 | 34436 ft | 448 kts | 203° |
| 2026-04-28 10:48 | 50.51907 | 3.79649 | 34690 ft | 448 kts | 204° |
| 2026-04-28 10:48 | 50.49052 | 3.77680 | 34931 ft | 448 kts | 204° |
| 2026-04-28 10:48 | 50.46205 | 3.75710 | 35190 ft | 447 kts | 204° |
| 2026-04-28 10:48 | 50.43366 | 3.73753 | 35465 ft | 445 kts | 204° |
| 2026-04-28 10:49 | 50.40528 | 3.71807 | 35701 ft | 445 kts | 204° |
| 2026-04-28 10:49 | 50.37691 | 3.69872 | 35899 ft | 445 kts | 204° |
| 2026-04-28 10:49 | 50.34844 | 3.67936 | 36000 ft | 447 kts | 204° |
| 2026-04-28 10:50 | 50.29113 | 3.64056 | 36007 ft | 448 kts | 204° |
| 2026-04-28 10:50 | 50.23418 | 3.60212 | 35988 ft | 444 kts | 204° |
| 2026-04-28 10:51 | 50.17767 | 3.56407 | 35996 ft | 441 kts | 204° |
| 2026-04-28 10:51 | 50.12144 | 3.52630 | 36000 ft | 439 kts | 204° |
| 2026-04-28 10:52 | 50.06536 | 3.48872 | 36002 ft | 439 kts | 203° |
| 2026-04-28 10:52 | 50.00926 | 3.45123 | 36007 ft | 439 kts | 203° |
| 2026-04-28 10:53 | 49.95259 | 3.41345 | 36008 ft | 441 kts | 203° |
| 2026-04-28 10:53 | 49.89599 | 3.37582 | 36007 ft | 443 kts | 203° |
| 2026-04-28 10:54 | 49.83916 | 3.33813 | 36007 ft | 446 kts | 203° |
| 2026-04-28 10:54 | 49.78198 | 3.30030 | 36006 ft | 448 kts | 203° |
| 2026-04-28 10:55 | 49.72461 | 3.26244 | 36000 ft | 449 kts | 203° |
| 2026-04-28 10:55 | 49.66709 | 3.22459 | 35998 ft | 449 kts | 203° |
| 2026-04-28 10:56 | 49.60958 | 3.18683 | 36003 ft | 449 kts | 203° |
| 2026-04-28 10:56 | 49.55211 | 3.14918 | 35996 ft | 448 kts | 203° |
| 2026-04-28 10:57 | 49.49484 | 3.11168 | 35997 ft | 447 kts | 204° |
| 2026-04-28 10:57 | 49.44151 | 3.06332 | 36004 ft | 445 kts | 214° |
| 2026-04-28 10:58 | 49.39035 | 3.00996 | 36002 ft | 444 kts | 214° |
| 2026-04-28 10:58 | 49.33917 | 2.95721 | 35998 ft | 443 kts | 214° |
| 2026-04-28 10:59 | 49.28784 | 2.90514 | 36000 ft | 442 kts | 213° |
| 2026-04-28 10:59 | 49.23650 | 2.85344 | 36001 ft | 442 kts | 213° |
| 2026-04-28 11:00 | 49.18505 | 2.80177 | 36000 ft | 442 kts | 213° |
| 2026-04-28 11:00 | 49.13357 | 2.75016 | 36000 ft | 443 kts | 213° |
| 2026-04-28 11:01 | 49.08202 | 2.69860 | 36001 ft | 443 kts | 213° |
| 2026-04-28 11:01 | 49.03035 | 2.64704 | 36000 ft | 444 kts | 213° |
| 2026-04-28 11:02 | 48.97860 | 2.59553 | 36002 ft | 445 kts | 213° |
| 2026-04-28 11:02 | 48.92674 | 2.54406 | 36000 ft | 445 kts | 213° |
| 2026-04-28 11:03 | 48.87482 | 2.49262 | 35999 ft | 446 kts | 213° |
| 2026-04-28 11:03 | 48.82285 | 2.44124 | 36004 ft | 446 kts | 213° |
| 2026-04-28 11:04 | 48.77928 | 2.39825 | 36002 ft | 446 kts | 213° |
| 2026-04-28 11:04 | 48.72727 | 2.34705 | 36001 ft | 446 kts | 213° |
| 2026-04-28 11:05 | 48.67523 | 2.29594 | 35999 ft | 446 kts | 213° |
| 2026-04-28 11:05 | 48.62320 | 2.24496 | 35997 ft | 445 kts | 213° |
| 2026-04-28 11:06 | 48.57008 | 2.19708 | 35991 ft | 445 kts | 204° |
| 2026-04-28 11:06 | 48.51075 | 2.17144 | 36008 ft | 444 kts | 192° |
| 2026-04-28 11:07 | 48.45003 | 2.15320 | 36004 ft | 445 kts | 192° |
| 2026-04-28 11:07 | 48.38949 | 2.13422 | 36001 ft | 444 kts | 192° |
| 2026-04-28 11:08 | 48.32902 | 2.11476 | 36002 ft | 445 kts | 192° |
| 2026-04-28 11:08 | 48.26776 | 2.10321 | 35996 ft | 445 kts | 178° |
| 2026-04-28 11:09 | 48.20649 | 2.11565 | 36003 ft | 445 kts | 171° |
| 2026-04-28 11:09 | 48.14523 | 2.12917 | 35995 ft | 445 kts | 175° |
| 2026-04-28 11:09 | 48.11431 | 2.12988 | 35996 ft | 445 kts | 186° |
| 2026-04-28 11:10 | 48.08364 | 2.12428 | 36010 ft | 444 kts | 188° |
| 2026-04-28 11:10 | 48.02232 | 2.11132 | 35995 ft | 445 kts | 188° |
| 2026-04-28 11:11 | 47.96096 | 2.09883 | 36006 ft | 446 kts | 188° |
| 2026-04-28 11:11 | 47.89945 | 2.08689 | 36004 ft | 446 kts | 187° |
| 2026-04-28 11:12 | 47.83783 | 2.07509 | 36000 ft | 446 kts | 187° |
| 2026-04-28 11:12 | 47.77626 | 2.06333 | 36001 ft | 447 kts | 187° |
| 2026-04-28 11:13 | 47.71460 | 2.05155 | 36001 ft | 447 kts | 187° |
| 2026-04-28 11:13 | 47.65296 | 2.03978 | 36000 ft | 446 kts | 188° |
| 2026-04-28 11:14 | 47.59344 | 2.01501 | 36010 ft | 445 kts | 202° |
| 2026-04-28 11:14 | 47.53605 | 1.98061 | 36001 ft | 445 kts | 202° |
| 2026-04-28 11:15 | 47.47819 | 1.94628 | 35998 ft | 445 kts | 202° |
| 2026-04-28 11:15 | 47.42056 | 1.91279 | 36004 ft | 445 kts | 201° |
| 2026-04-28 11:16 | 47.36289 | 1.87955 | 36003 ft | 445 kts | 201° |
| 2026-04-28 11:16 | 47.30524 | 1.84639 | 36002 ft | 445 kts | 201° |
| 2026-04-28 11:17 | 47.24759 | 1.81328 | 36001 ft | 445 kts | 201° |
| 2026-04-28 11:17 | 47.18995 | 1.78031 | 36003 ft | 445 kts | 201° |
| 2026-04-28 11:18 | 47.13254 | 1.74795 | 36000 ft | 445 kts | 201° |
| 2026-04-28 11:18 | 47.07474 | 1.71555 | 36000 ft | 445 kts | 201° |
| 2026-04-28 11:19 | 47.01691 | 1.68316 | 35999 ft | 445 kts | 201° |
| 2026-04-28 11:19 | 46.95911 | 1.65082 | 36002 ft | 445 kts | 201° |
| 2026-04-28 11:20 | 46.90084 | 1.61829 | 36001 ft | 445 kts | 201° |
| 2026-04-28 11:20 | 46.84296 | 1.58605 | 36001 ft | 445 kts | 201° |
| 2026-04-28 11:21 | 46.78508 | 1.55388 | 36000 ft | 445 kts | 201° |
| 2026-04-28 11:21 | 46.72721 | 1.52179 | 36001 ft | 445 kts | 201° |
| 2026-04-28 11:22 | 46.66929 | 1.48975 | 36004 ft | 445 kts | 201° |
| 2026-04-28 11:22 | 46.61135 | 1.45777 | 36001 ft | 445 kts | 201° |
| 2026-04-28 11:23 | 46.55343 | 1.42587 | 36005 ft | 445 kts | 201° |
| 2026-04-28 11:23 | 46.49548 | 1.39404 | 36002 ft | 445 kts | 201° |
| 2026-04-28 11:24 | 46.43754 | 1.36228 | 35998 ft | 445 kts | 201° |
| 2026-04-28 11:24 | 46.37960 | 1.33059 | 36001 ft | 445 kts | 201° |
| 2026-04-28 11:25 | 46.32164 | 1.29896 | 36002 ft | 445 kts | 201° |
| 2026-04-28 11:25 | 46.26365 | 1.26739 | 36001 ft | 445 kts | 201° |
| 2026-04-28 11:26 | 46.20564 | 1.23587 | 36002 ft | 445 kts | 201° |
| 2026-04-28 11:26 | 46.14759 | 1.20441 | 36005 ft | 446 kts | 201° |
| 2026-04-28 11:27 | 46.08952 | 1.17301 | 36000 ft | 446 kts | 201° |
| 2026-04-28 11:27 | 46.03143 | 1.14167 | 36004 ft | 446 kts | 201° |
| 2026-04-28 11:28 | 45.97333 | 1.11038 | 36001 ft | 446 kts | 201° |
| 2026-04-28 11:28 | 45.91515 | 1.07912 | 36005 ft | 446 kts | 201° |
| 2026-04-28 11:29 | 45.85700 | 1.04795 | 36001 ft | 446 kts | 200° |
| 2026-04-28 11:29 | 45.80132 | 1.00933 | 35998 ft | 445 kts | 216° |
| 2026-04-28 11:30 | 45.75354 | 0.95307 | 36003 ft | 445 kts | 220° |
| 2026-04-28 11:30 | 45.68283 | 0.86694 | 36000 ft | 445 kts | 220° |
| 2026-04-28 11:31 | 45.63537 | 0.81005 | 36001 ft | 445 kts | 220° |
| 2026-04-28 11:31 | 45.58776 | 0.75339 | 36001 ft | 445 kts | 220° |
| 2026-04-28 11:32 | 45.54009 | 0.69684 | 35998 ft | 446 kts | 220° |
| 2026-04-28 11:32 | 45.49240 | 0.64038 | 36000 ft | 445 kts | 220° |
| 2026-04-28 11:33 | 45.44471 | 0.58403 | 36004 ft | 445 kts | 220° |
| 2026-04-28 11:33 | 45.39702 | 0.52781 | 36005 ft | 445 kts | 220° |
| 2026-04-28 11:34 | 45.34929 | 0.47168 | 36003 ft | 445 kts | 220° |
| 2026-04-28 11:34 | 45.30162 | 0.41573 | 36005 ft | 444 kts | 220° |
| 2026-04-28 11:35 | 45.25395 | 0.35992 | 35999 ft | 444 kts | 219° |
| 2026-04-28 11:35 | 45.20594 | 0.30381 | 35998 ft | 444 kts | 219° |
| 2026-04-28 11:36 | 45.15857 | 0.24859 | 36002 ft | 444 kts | 219° |
| 2026-04-28 11:36 | 45.11057 | 0.19275 | 36001 ft | 443 kts | 219° |
| 2026-04-28 11:37 | 45.06323 | 0.13778 | 36001 ft | 443 kts | 219° |
| 2026-04-28 11:37 | 45.01524 | 0.08223 | 36005 ft | 443 kts | 219° |
| 2026-04-28 11:38 | 44.96755 | 0.02715 | 36006 ft | 443 kts | 219° |
| 2026-04-28 11:38 | 44.92015 | -0.02750 | 36001 ft | 443 kts | 219° |
| 2026-04-28 11:39 | 44.87214 | -0.08275 | 36003 ft | 443 kts | 219° |
| 2026-04-28 11:39 | 44.82472 | -0.13719 | 36003 ft | 443 kts | 219° |
| 2026-04-28 11:40 | 44.77692 | -0.19197 | 36000 ft | 443 kts | 219° |
| 2026-04-28 11:40 | 44.73687 | -0.23778 | 36001 ft | 443 kts | 219° |
| 2026-04-28 11:41 | 44.68904 | -0.29238 | 36002 ft | 443 kts | 219° |
| 2026-04-28 11:41 | 44.64041 | -0.34549 | 35998 ft | 443 kts | 211° |
| 2026-04-28 11:42 | 44.58607 | -0.38640 | 36001 ft | 443 kts | 207° |
| 2026-04-28 11:42 | 44.53112 | -0.42556 | 35998 ft | 443 kts | 207° |
| 2026-04-28 11:43 | 44.47622 | -0.46516 | 36004 ft | 444 kts | 207° |
| 2026-04-28 11:43 | 44.42150 | -0.50507 | 36002 ft | 444 kts | 208° |
| 2026-04-28 11:44 | 44.36679 | -0.54507 | 35999 ft | 444 kts | 208° |
| 2026-04-28 11:44 | 44.31205 | -0.58504 | 36003 ft | 444 kts | 208° |
| 2026-04-28 11:45 | 44.25728 | -0.62492 | 36004 ft | 444 kts | 208° |
| 2026-04-28 11:45 | 44.20251 | -0.66471 | 36004 ft | 444 kts | 207° |
| 2026-04-28 11:46 | 44.14768 | -0.70445 | 36001 ft | 444 kts | 207° |
| 2026-04-28 11:46 | 44.09281 | -0.74414 | 36004 ft | 444 kts | 207° |
| 2026-04-28 11:47 | 44.03798 | -0.78372 | 35998 ft | 444 kts | 207° |
| 2026-04-28 11:47 | 43.98310 | -0.82326 | 36000 ft | 444 kts | 207° |
| 2026-04-28 11:48 | 43.92824 | -0.86269 | 36003 ft | 444 kts | 207° |
| 2026-04-28 11:48 | 43.87337 | -0.90205 | 35999 ft | 444 kts | 207° |
| 2026-04-28 11:49 | 43.81852 | -0.94131 | 35999 ft | 444 kts | 207° |
| 2026-04-28 11:49 | 43.76368 | -0.98049 | 36003 ft | 443 kts | 207° |
| 2026-04-28 11:50 | 43.70887 | -1.01956 | 36004 ft | 443 kts | 207° |
| 2026-04-28 11:50 | 43.65404 | -1.05856 | 36001 ft | 443 kts | 207° |
| 2026-04-28 11:51 | 43.59917 | -1.09752 | 36000 ft | 443 kts | 207° |
| 2026-04-28 11:51 | 43.54434 | -1.13636 | 36004 ft | 443 kts | 207° |
| 2026-04-28 11:52 | 43.48945 | -1.17516 | 35999 ft | 443 kts | 207° |
| 2026-04-28 11:52 | 43.43463 | -1.21384 | 36004 ft | 443 kts | 207° |
| 2026-04-28 11:53 | 43.37978 | -1.25246 | 35999 ft | 443 kts | 207° |
| 2026-04-28 11:53 | 43.32487 | -1.29105 | 35998 ft | 443 kts | 207° |
| 2026-04-28 11:54 | 43.26993 | -1.32958 | 36000 ft | 444 kts | 207° |
| 2026-04-28 11:54 | 43.21491 | -1.36809 | 35999 ft | 444 kts | 207° |
| 2026-04-28 11:55 | 43.15977 | -1.40661 | 36000 ft | 445 kts | 207° |
| 2026-04-28 11:55 | 43.10446 | -1.44517 | 36008 ft | 447 kts | 207° |
| 2026-04-28 11:56 | 43.04900 | -1.48377 | 35995 ft | 448 kts | 207° |
| 2026-04-28 11:56 | 42.99336 | -1.52247 | 36011 ft | 449 kts | 207° |
| 2026-04-28 11:57 | 42.93755 | -1.56124 | 35998 ft | 450 kts | 207° |
| 2026-04-28 11:57 | 42.88165 | -1.59999 | 36003 ft | 451 kts | 207° |
| 2026-04-28 11:58 | 42.82576 | -1.63866 | 36000 ft | 451 kts | 207° |
| 2026-04-28 11:58 | 42.76992 | -1.67722 | 35997 ft | 449 kts | 207° |
| 2026-04-28 11:59 | 42.71416 | -1.71553 | 35988 ft | 448 kts | 207° |
| 2026-04-28 11:59 | 42.65834 | -1.75302 | 36002 ft | 447 kts | 206° |
| 2026-04-28 12:00 | 42.60262 | -1.79026 | 36003 ft | 446 kts | 206° |
| 2026-04-28 12:00 | 42.54711 | -1.82741 | 35999 ft | 444 kts | 206° |
| 2026-04-28 12:01 | 42.49170 | -1.86447 | 35998 ft | 443 kts | 206° |
| 2026-04-28 12:01 | 42.43640 | -1.90138 | 36003 ft | 443 kts | 206° |
| 2026-04-28 12:02 | 42.38118 | -1.93820 | 36002 ft | 442 kts | 206° |
| 2026-04-28 12:02 | 42.32596 | -1.97501 | 36001 ft | 442 kts | 206° |
| 2026-04-28 12:03 | 42.27077 | -2.01179 | 36000 ft | 442 kts | 206° |
| 2026-04-28 12:03 | 42.21551 | -2.04847 | 35998 ft | 443 kts | 206° |
| 2026-04-28 12:04 | 42.16006 | -2.08515 | 35997 ft | 444 kts | 206° |
| 2026-04-28 12:04 | 42.10449 | -2.12187 | 36010 ft | 446 kts | 206° |
| 2026-04-28 12:05 | 42.04865 | -2.15871 | 35997 ft | 448 kts | 206° |
| 2026-04-28 12:05 | 41.99258 | -2.19564 | 36007 ft | 450 kts | 206° |
| 2026-04-28 12:06 | 41.93618 | -2.23270 | 36004 ft | 452 kts | 206° |
| 2026-04-28 12:06 | 41.87957 | -2.26982 | 36006 ft | 454 kts | 206° |
| 2026-04-28 12:07 | 41.82276 | -2.30701 | 36002 ft | 455 kts | 206° |
| 2026-04-28 12:07 | 41.76583 | -2.34420 | 36000 ft | 455 kts | 206° |
| 2026-04-28 12:08 | 41.70894 | -2.38130 | 35997 ft | 454 kts | 206° |
| 2026-04-28 12:08 | 41.65218 | -2.41823 | 36002 ft | 453 kts | 206° |
| 2026-04-28 12:09 | 41.59555 | -2.45501 | 35998 ft | 452 kts | 206° |
| 2026-04-28 12:09 | 41.53913 | -2.49160 | 35999 ft | 450 kts | 206° |
| 2026-04-28 12:10 | 41.48285 | -2.52798 | 36002 ft | 449 kts | 206° |
| 2026-04-28 12:10 | 41.42672 | -2.56407 | 36000 ft | 447 kts | 206° |
| 2026-04-28 12:11 | 41.37068 | -2.60005 | 36003 ft | 446 kts | 206° |
| 2026-04-28 12:11 | 41.31171 | -2.62463 | 36007 ft | 446 kts | 187° |
| 2026-04-28 12:12 | 41.24984 | -2.62488 | 36014 ft | 446 kts | 176° |
| 2026-04-28 12:12 | 41.18791 | -2.61823 | 36008 ft | 447 kts | 175° |
| 2026-04-28 12:13 | 41.12569 | -2.61207 | 36005 ft | 449 kts | 176° |
| 2026-04-28 12:13 | 41.06330 | -2.60643 | 36003 ft | 450 kts | 176° |
| 2026-04-28 12:14 | 41.00024 | -2.60082 | 36007 ft | 452 kts | 176° |
| 2026-04-28 12:14 | 40.93743 | -2.59520 | 36000 ft | 453 kts | 176° |
| 2026-04-28 12:15 | 40.87448 | -2.58957 | 36006 ft | 454 kts | 176° |
| 2026-04-28 12:15 | 40.81150 | -2.58394 | 35998 ft | 454 kts | 176° |
| 2026-04-28 12:16 | 40.74844 | -2.57832 | 36004 ft | 454 kts | 176° |
| 2026-04-28 12:16 | 40.68552 | -2.57273 | 35999 ft | 453 kts | 176° |
| 2026-04-28 12:17 | 40.62269 | -2.56715 | 35999 ft | 452 kts | 176° |
| 2026-04-28 12:17 | 40.55998 | -2.56160 | 36000 ft | 451 kts | 176° |
| 2026-04-28 12:18 | 40.49748 | -2.55607 | 36007 ft | 450 kts | 176° |
| 2026-04-28 12:18 | 40.44520 | -2.55145 | 36004 ft | 449 kts | 176° |
| 2026-04-28 12:19 | 40.38330 | -2.54873 | 35993 ft | 447 kts | 186° |
| 2026-04-28 12:19 | 40.32281 | -2.56798 | 36010 ft | 445 kts | 201° |
| 2026-04-28 12:20 | 40.26509 | -2.59768 | 36000 ft | 445 kts | 202° |
| 2026-04-28 12:20 | 40.20752 | -2.62732 | 35995 ft | 446 kts | 201° |
| 2026-04-28 12:21 | 40.14966 | -2.65655 | 36007 ft | 446 kts | 201° |
| 2026-04-28 12:21 | 40.09163 | -2.68556 | 36001 ft | 447 kts | 201° |
| 2026-04-28 12:22 | 40.03352 | -2.71451 | 36005 ft | 447 kts | 201° |
| 2026-04-28 12:22 | 39.97528 | -2.74349 | 36001 ft | 448 kts | 201° |
| 2026-04-28 12:23 | 39.91697 | -2.77246 | 36000 ft | 449 kts | 201° |
| 2026-04-28 12:23 | 39.85856 | -2.80143 | 36004 ft | 449 kts | 201° |
| 2026-04-28 12:24 | 39.80009 | -2.83038 | 36001 ft | 450 kts | 201° |
| 2026-04-28 12:24 | 39.74161 | -2.85929 | 36005 ft | 450 kts | 201° |
| 2026-04-28 12:25 | 39.68307 | -2.88817 | 36000 ft | 450 kts | 201° |
| 2026-04-28 12:25 | 39.62457 | -2.91699 | 36001 ft | 449 kts | 201° |
| 2026-04-28 12:26 | 39.56613 | -2.94573 | 36000 ft | 449 kts | 201° |
| 2026-04-28 12:26 | 39.50775 | -2.97450 | 36001 ft | 448 kts | 201° |
| 2026-04-28 12:27 | 39.44950 | -3.00318 | 35997 ft | 448 kts | 201° |
| 2026-04-28 12:27 | 39.39130 | -3.03176 | 36002 ft | 447 kts | 201° |
| 2026-04-28 12:28 | 39.33313 | -3.06004 | 36000 ft | 446 kts | 201° |
| 2026-04-28 12:28 | 39.27503 | -3.08819 | 36001 ft | 446 kts | 201° |
| 2026-04-28 12:29 | 39.18799 | -3.13031 | 35999 ft | 445 kts | 201° |
| 2026-04-28 12:30 | 39.13001 | -3.15833 | 36002 ft | 445 kts | 201° |
| 2026-04-28 12:30 | 39.07206 | -3.18629 | 36003 ft | 445 kts | 201° |
| 2026-04-28 12:31 | 39.01399 | -3.21426 | 35723 ft | 447 kts | 201° |
| 2026-04-28 12:31 | 38.98508 | -3.22816 | 35377 ft | 442 kts | 201° |
| 2026-04-28 12:31 | 38.95642 | -3.24197 | 34969 ft | 438 kts | 201° |
| 2026-04-28 12:31 | 38.92801 | -3.25566 | 34580 ft | 434 kts | 201° |
| 2026-04-28 12:32 | 38.89980 | -3.26925 | 34174 ft | 431 kts | 201° |
| 2026-04-28 12:32 | 38.87182 | -3.28272 | 33762 ft | 428 kts | 201° |
| 2026-04-28 12:32 | 38.84407 | -3.29607 | 33376 ft | 425 kts | 201° |
| 2026-04-28 12:32 | 38.81649 | -3.30933 | 32973 ft | 422 kts | 201° |
| 2026-04-28 12:33 | 38.78911 | -3.32249 | 32590 ft | 419 kts | 201° |
| 2026-04-28 12:33 | 38.76191 | -3.33554 | 32193 ft | 416 kts | 201° |
| 2026-04-28 12:33 | 38.73487 | -3.34850 | 31811 ft | 413 kts | 201° |
| 2026-04-28 12:33 | 38.70803 | -3.36136 | 31428 ft | 411 kts | 201° |
| 2026-04-28 12:34 | 38.68139 | -3.37411 | 31048 ft | 408 kts | 201° |
| 2026-04-28 12:34 | 38.65490 | -3.38678 | 30668 ft | 405 kts | 201° |
| 2026-04-28 12:34 | 38.62854 | -3.39938 | 30290 ft | 403 kts | 201° |
| 2026-04-28 12:34 | 38.60242 | -3.41185 | 29915 ft | 400 kts | 201° |
| 2026-04-28 12:35 | 38.57645 | -3.42424 | 29539 ft | 397 kts | 201° |
| 2026-04-28 12:35 | 38.55063 | -3.43655 | 29153 ft | 395 kts | 200° |
| 2026-04-28 12:35 | 38.52500 | -3.44876 | 28759 ft | 392 kts | 200° |
| 2026-04-28 12:35 | 38.49951 | -3.46090 | 28381 ft | 389 kts | 200° |
| 2026-04-28 12:36 | 38.47422 | -3.47293 | 27992 ft | 387 kts | 200° |
| 2026-04-28 12:36 | 38.44906 | -3.48489 | 27619 ft | 384 kts | 200° |
| 2026-04-28 12:36 | 38.42409 | -3.49675 | 27243 ft | 382 kts | 200° |
| 2026-04-28 12:36 | 38.39919 | -3.50857 | 26864 ft | 380 kts | 200° |
| 2026-04-28 12:37 | 38.37423 | -3.52041 | 26482 ft | 377 kts | 200° |
| 2026-04-28 12:37 | 38.34969 | -3.53204 | 26112 ft | 375 kts | 200° |
| 2026-04-28 12:37 | 38.32530 | -3.54360 | 25735 ft | 373 kts | 200° |
| 2026-04-28 12:37 | 38.30109 | -3.55506 | 25355 ft | 371 kts | 200° |
| 2026-04-28 12:38 | 38.27697 | -3.56647 | 24993 ft | 368 kts | 200° |
| 2026-04-28 12:38 | 38.25303 | -3.57779 | 24629 ft | 366 kts | 200° |
| 2026-04-28 12:38 | 38.22922 | -3.58904 | 24268 ft | 364 kts | 200° |
| 2026-04-28 12:38 | 38.20554 | -3.60021 | 23907 ft | 362 kts | 200° |
| 2026-04-28 12:39 | 38.18203 | -3.61130 | 23548 ft | 360 kts | 200° |
| 2026-04-28 12:39 | 38.15835 | -3.62132 | 23181 ft | 358 kts | 193° |
| 2026-04-28 12:39 | 38.13382 | -3.62594 | 22825 ft | 356 kts | 182° |
| 2026-04-28 12:39 | 38.10916 | -3.62648 | 22486 ft | 353 kts | 180° |
| 2026-04-28 12:40 | 38.08499 | -3.62647 | 22134 ft | 351 kts | 180° |
| 2026-04-28 12:40 | 38.06028 | -3.62636 | 21777 ft | 349 kts | 180° |
| 2026-04-28 12:40 | 38.03602 | -3.62630 | 21422 ft | 347 kts | 180° |
| 2026-04-28 12:40 | 38.01191 | -3.62632 | 21082 ft | 345 kts | 180° |
| 2026-04-28 12:41 | 37.98794 | -3.62640 | 20732 ft | 344 kts | 180° |
| 2026-04-28 12:41 | 37.96412 | -3.62652 | 20387 ft | 342 kts | 180° |
| 2026-04-28 12:41 | 37.94039 | -3.62667 | 20043 ft | 340 kts | 180° |
| 2026-04-28 12:41 | 37.91682 | -3.62684 | 19701 ft | 338 kts | 180° |
| 2026-04-28 12:42 | 37.89337 | -3.62701 | 19360 ft | 336 kts | 180° |
| 2026-04-28 12:42 | 37.87003 | -3.62719 | 19020 ft | 334 kts | 180° |
| 2026-04-28 12:42 | 37.84681 | -3.62736 | 18684 ft | 333 kts | 180° |
| 2026-04-28 12:42 | 37.82370 | -3.62754 | 18343 ft | 331 kts | 180° |
| 2026-04-28 12:43 | 37.80074 | -3.62772 | 18012 ft | 329 kts | 180° |
| 2026-04-28 12:43 | 37.77787 | -3.62789 | 17680 ft | 328 kts | 181° |
| 2026-04-28 12:43 | 37.75511 | -3.62807 | 17342 ft | 326 kts | 181° |
| 2026-04-28 12:43 | 37.73244 | -3.62825 | 17020 ft | 325 kts | 180° |
| 2026-04-28 12:44 | 37.70988 | -3.62842 | 16688 ft | 324 kts | 181° |
| 2026-04-28 12:44 | 37.68741 | -3.62859 | 16371 ft | 322 kts | 180° |
| 2026-04-28 12:44 | 37.66505 | -3.62877 | 16026 ft | 321 kts | 181° |
| 2026-04-28 12:44 | 37.64277 | -3.62894 | 15696 ft | 319 kts | 180° |
| 2026-04-28 12:45 | 37.62061 | -3.62911 | 15373 ft | 318 kts | 181° |
| 2026-04-28 12:45 | 37.59852 | -3.62928 | 15055 ft | 316 kts | 181° |
| 2026-04-28 12:45 | 37.57658 | -3.62945 | 14725 ft | 315 kts | 181° |
| 2026-04-28 12:45 | 37.55468 | -3.62961 | 14399 ft | 314 kts | 181° |
| 2026-04-28 12:46 | 37.53293 | -3.62978 | 14068 ft | 312 kts | 181° |
| 2026-04-28 12:46 | 37.51123 | -3.62995 | 13754 ft | 311 kts | 181° |
| 2026-04-28 12:46 | 37.48969 | -3.63011 | 13436 ft | 309 kts | 181° |
| 2026-04-28 12:46 | 37.46821 | -3.63028 | 13118 ft | 308 kts | 181° |
| 2026-04-28 12:47 | 37.44684 | -3.63044 | 12802 ft | 306 kts | 181° |
| 2026-04-28 12:47 | 37.42556 | -3.63060 | 12487 ft | 305 kts | 180° |
| 2026-04-28 12:47 | 37.40450 | -3.63250 | 12147 ft | 303 kts | 196° |
| 2026-04-28 12:47 | 37.38600 | -3.64451 | 11874 ft | 299 kts | 220° |
| 2026-04-28 12:48 | 37.37236 | -3.66396 | 11588 ft | 296 kts | 234° |
| 2026-04-28 12:48 | 37.36044 | -3.68501 | 11281 ft | 295 kts | 235° |
| 2026-04-28 12:48 | 37.34854 | -3.70598 | 10976 ft | 294 kts | 234° |
| 2026-04-28 12:48 | 37.33660 | -3.72681 | 10665 ft | 293 kts | 234° |
| 2026-04-28 12:49 | 37.32551 | -3.74762 | 10563 ft | 281 kts | 241° |
| 2026-04-28 12:49 | 37.31688 | -3.76930 | 10186 ft | 276 kts | 245° |
| 2026-04-28 12:49 | 37.30891 | -3.79122 | 9703 ft | 276 kts | 246° |
| 2026-04-28 12:49 | 37.30105 | -3.81289 | 9489 ft | 264 kts | 245° |
| 2026-04-28 12:50 | 37.29362 | -3.83308 | 9363 ft | 246 kts | 245° |
| 2026-04-28 12:50 | 37.28653 | -3.85212 | 9017 ft | 237 kts | 245° |
| 2026-04-28 12:50 | 37.27997 | -3.87102 | 8497 ft | 236 kts | 255° |
| 2026-04-28 12:50 | 37.27866 | -3.89134 | 8025 ft | 232 kts | 271° |
| 2026-04-28 12:51 | 37.27884 | -3.91153 | 7518 ft | 230 kts | 270° |
| 2026-04-28 12:51 | 37.27896 | -3.93141 | 7053 ft | 225 kts | 270° |
| 2026-04-28 12:51 | 37.27906 | -3.95067 | 6665 ft | 217 kts | 270° |
| 2026-04-28 12:51 | 37.27915 | -3.96933 | 6282 ft | 211 kts | 270° |
| 2026-04-28 12:52 | 37.27925 | -3.98727 | 6048 ft | 197 kts | 270° |
| 2026-04-28 12:52 | 37.27933 | -4.00419 | 6039 ft | 192 kts | 270° |
| 2026-04-28 12:52 | 37.27844 | -4.02091 | 6007 ft | 193 kts | 253° |
| 2026-04-28 12:52 | 37.27173 | -4.03519 | 6039 ft | 193 kts | 227° |
| 2026-04-28 12:53 | 37.26221 | -4.04729 | 6040 ft | 196 kts | 225° |
| 2026-04-28 12:53 | 37.25136 | -4.05759 | 6026 ft | 196 kts | 209° |
| 2026-04-28 12:53 | 37.23936 | -4.06564 | 6028 ft | 195 kts | 208° |
| 2026-04-28 12:53 | 37.23127 | -4.07103 | 6029 ft | 195 kts | 208° |
| 2026-04-28 12:54 | 37.21645 | -4.08310 | 6026 ft | 189 kts | 214° |
| 2026-04-28 12:54 | 37.20402 | -4.08672 | 6032 ft | 188 kts | 168° |
| 2026-04-28 12:54 | 37.19310 | -4.07800 | 6027 ft | 193 kts | 122° |
| 2026-04-28 12:54 | 37.18958 | -4.06194 | 5972 ft | 196 kts | 97° |
| 2026-04-28 12:55 | 37.18803 | -4.04483 | 5714 ft | 196 kts | 94° |
| 2026-04-28 12:55 | 37.18739 | -4.02796 | 5457 ft | 191 kts | 91° |
| 2026-04-28 12:55 | 37.18730 | -4.01152 | 5207 ft | 186 kts | 90° |
| 2026-04-28 12:55 | 37.18735 | -3.99547 | 4965 ft | 182 kts | 90° |
| 2026-04-28 12:56 | 37.18740 | -3.98485 | 4802 ft | 179 kts | 89° |
| 2026-04-28 12:56 | 37.18749 | -3.96943 | 4563 ft | 175 kts | 89° |
| 2026-04-28 12:56 | 37.18757 | -3.95454 | 4384 ft | 163 kts | 89° |
| 2026-04-28 12:56 | 37.18766 | -3.94059 | 4171 ft | 160 kts | 89° |
| 2026-04-28 12:57 | 37.18774 | -3.92664 | 3929 ft | 157 kts | 90° |
| 2026-04-28 12:57 | 37.18783 | -3.91305 | 3710 ft | 155 kts | 89° |
| 2026-04-28 12:57 | 37.18791 | -3.89952 | 3516 ft | 156 kts | 89° |
| 2026-04-28 12:57 | 37.18799 | -3.88596 | 3304 ft | 155 kts | 89° |
| 2026-04-28 12:58 | 37.18807 | -3.87250 | 3104 ft | 155 kts | 89° |
| 2026-04-28 12:58 | 37.18816 | -3.85899 | 2889 ft | 154 kts | 89° |
| 2026-04-28 12:58 | 37.18833 | -3.84558 | 2696 ft | 154 kts | 89° |
| 2026-04-28 12:58 | 37.18838 | -3.83220 | 2498 ft | 153 kts | 91° |
| 2026-04-28 12:59 | 37.18843 | -3.81886 | 2316 ft | 152 kts | 89° |
| 2026-04-28 12:59 | 37.18853 | -3.80537 | 2096 ft | 153 kts | 90° |
| 2026-04-28 12:59 | 37.18861 | -3.79212 | 1890 ft | 151 kts | 89° |
| 2026-04-28 12:59 | 37.18868 | -3.77985 | 1853 ft | 126 kts | 89° |
| 2026-04-28 13:00 | 37.18876 | -3.77074 | 1862 ft | 83 kts | 89° |
| 2026-04-28 13:00 | 37.18880 | -3.76628 | 1861 ft | 27 kts | 89° |
| 2026-04-28 13:00 | 37.18882 | -3.76398 | 1863 ft | 25 kts | 89° |
| 2026-04-28 13:00 | 37.18884 | -3.76185 | 1864 ft | 15 kts | 95° |
| 2026-04-28 13:01 | 37.18882 | -3.76178 | 1861 ft | 1 kts | 102° |
| 2026-04-28 13:01 | 37.18855 | -3.76142 | 1862 ft | 11 kts | 161° |
| 2026-04-28 13:01 | 37.18754 | -3.76140 | 1858 ft | 18 kts | 198° |
| 2026-04-28 13:01 | 37.18716 | -3.76252 | 1864 ft | 19 kts | 271° |
| 2026-04-28 13:02 | 37.18715 | -3.76443 | 1863 ft | 22 kts | 269° |
| 2026-04-28 13:02 | 37.18713 | -3.76665 | 1862 ft | 29 kts | 269° |
| 2026-04-28 13:02 | 37.18711 | -3.76877 | 1861 ft | 23 kts | 270° |
| 2026-04-28 13:02 | 37.18711 | -3.77099 | 1859 ft | 27 kts | 270° |
| 2026-04-28 13:03 | 37.18709 | -3.77282 | 1859 ft | 18 kts | 270° |
| 2026-04-28 13:03 | 37.18684 | -3.77372 | 1858 ft | 6 kts | 195° |
| 2026-04-28 13:03 | 37.18661 | -3.77411 | 1858 ft | 4 kts | 259° |
| 2026-04-28 13:03 | 37.18660 | -3.77430 | 1858 ft | 0 kts | 268° |
| 2026-04-28 13:04 | 37.18660 | -3.77444 | 1858 ft | 3 kts | 268° |
| 2026-04-28 13:04 | 37.18660 | -3.77455 | 1858 ft | 0 kts | 269° |